Time;durP1;ratioP1;P1;durP2;ratioP2;P2;SDS_P1;SDS_P2;PMS_P1;PMS_P2;Temp;Humidity;BMP_temperature;BMP_pressure;BME280_temperature;BME280_humidity;BME280_pressure;Samples;Min_cycle;Max_cycle;Signal;HPM_P1;HPM_P2
2021/06/12 00:01:41;;;;;;;6.15;2.67;;;;;;;21.15;88.36;100983.31;5056534;28;20036;-70
2021/06/12 00:04:07;;;;;;;3.85;2.63;;;;;;;21.11;89.03;100990.81;5052044;28;20049;-70
2021/06/12 00:06:33;;;;;;;4.85;3.00;;;;;;;20.99;88.79;101000.38;5075511;28;20047;-70
2021/06/12 00:08:58;;;;;;;6.15;2.83;;;;;;;20.93;89.31;100996.56;5065886;28;20033;-70
2021/06/12 00:11:24;;;;;;;4.22;2.75;;;;;;;20.73;89.86;100975.78;5068459;28;20029;-70
2021/06/12 00:13:50;;;;;;;6.15;2.67;;;;;;;20.53;91.40;100973.75;5052987;28;20487;-70
2021/06/12 00:16:15;;;;;;;2.45;2.25;;;;;;;20.48;92.03;100960.50;5068648;28;20714;-70
2021/06/12 00:18:41;;;;;;;4.78;2.63;;;;;;;20.51;92.31;100970.63;5070618;28;20029;-70
2021/06/12 00:21:06;;;;;;;4.28;3.22;;;;;;;20.75;90.71;100974.16;5062768;28;20029;-70
2021/06/12 00:23:32;;;;;;;5.05;3.00;;;;;;;20.67;90.79;100964.53;5060558;28;20447;-70
2021/06/12 00:25:57;;;;;;;3.58;2.83;;;;;;;20.58;90.80;100970.53;5062763;28;20055;-70
2021/06/12 00:28:23;;;;;;;3.35;2.88;;;;;;;20.53;91.35;100970.22;5068225;28;20604;-70
2021/06/12 00:30:48;;;;;;;6.38;3.08;;;;;;;20.40;92.36;100974.72;5059144;28;20033;-70
2021/06/12 00:33:14;;;;;;;4.63;2.85;;;;;;;20.40;92.62;100972.00;5067957;28;20028;-70
2021/06/12 00:35:40;;;;;;;4.05;2.90;;;;;;;20.55;91.58;100963.16;5069999;28;20063;-70
2021/06/12 00:38:06;;;;;;;3.20;2.80;;;;;;;20.60;90.74;100973.63;5065459;28;20051;-70
2021/06/12 00:40:31;;;;;;;5.57;2.83;;;;;;;20.59;91.01;100976.78;5062301;28;20031;-70
2021/06/12 00:42:57;;;;;;;4.38;2.72;;;;;;;20.36;91.88;100972.00;5064736;28;20033;-70
2021/06/12 00:45:24;;;;;;;5.47;2.97;;;;;;;20.37;91.96;100970.84;5063490;28;20404;-70
2021/06/12 00:47:52;;;;;;;6.40;2.97;;;;;;;20.47;91.84;100964.44;5064249;28;20041;-70
2021/06/12 00:50:19;;;;;;;3.53;3.08;;;;;;;20.37;92.02;100965.38;5070346;28;20032;-70
2021/06/12 00:52:44;;;;;;;5.03;2.50;;;;;;;20.48;91.89;100962.47;5064545;28;20029;-71
2021/06/12 00:55:14;;;;;;;3.85;2.80;;;;;;;20.55;91.33;100970.56;5069118;28;20720;-70
2021/06/12 00:57:40;;;;;;;3.55;2.60;;;;;;;20.49;91.26;100970.28;5060806;28;20041;-70
2021/06/12 01:00:08;;;;;;;6.97;3.08;;;;;;;20.66;90.46;100971.97;5055764;28;20029;-69
2021/06/12 01:02:35;;;;;;;6.47;2.63;;;;;;;20.64;89.64;100976.28;5061014;28;20025;-70
2021/06/12 01:05:01;;;;;;;3.00;2.67;;;;;;;20.62;90.74;100973.97;5074106;28;20016;-71
2021/06/12 01:07:26;;;;;;;3.35;2.55;;;;;;;20.70;90.07;100966.41;5076658;28;20432;-70
2021/06/12 01:09:52;;;;;;;2.92;2.60;;;;;;;20.72;89.54;100966.78;5056471;28;20032;-70
2021/06/12 01:12:48;;;;;;;5.55;2.83;;;;;;;20.77;88.30;100968.28;5064521;28;20032;-70
2021/06/12 01:15:16;;;;;;;4.90;2.85;;;;;;;20.89;87.65;100962.97;5056821;28;20132;-70
2021/06/12 01:18:02;;;;;;;2.78;2.40;;;;;;;20.81;88.51;100958.03;5062263;28;20032;-70
2021/06/12 01:20:55;;;;;;;5.00;2.60;;;;;;;20.77;88.93;100938.16;5055249;28;20037;-71
2021/06/12 01:23:50;;;;;;;5.10;2.50;;;;;;;20.82;88.85;100941.19;5068865;28;20392;-70
2021/06/12 01:26:58;;;;;;;5.53;2.83;;;;;;;20.86;88.37;100939.16;5033571;28;20048;-71
2021/06/12 01:29:27;;;;;;;3.38;2.90;;;;;;;20.52;89.88;100944.03;5069413;28;20644;-70
2021/06/12 01:31:54;;;;;;;3.83;2.70;;;;;;;20.73;89.71;100932.72;5077225;28;20477;-70
2021/06/12 01:34:21;;;;;;;3.05;2.70;;;;;;;20.58;90.02;100929.47;5063402;28;20055;-69
2021/06/12 01:36:48;;;;;;;5.65;2.58;;;;;;;20.67;89.52;100918.00;5054737;28;20078;-69
2021/06/12 01:39:14;;;;;;;5.07;2.65;;;;;;;20.80;88.54;100926.38;5070705;28;20028;-69
2021/06/12 01:41:42;;;;;;;4.20;2.67;;;;;;;20.88;88.39;100925.84;5071615;28;20103;-69
2021/06/12 01:44:09;;;;;;;4.43;2.58;;;;;;;20.68;89.61;100919.53;5070529;28;20028;-69
2021/06/12 01:46:37;;;;;;;4.47;2.88;;;;;;;20.57;90.15;100927.94;5069587;28;20513;-70
2021/06/12 01:49:03;;;;;;;3.55;2.88;;;;;;;20.62;90.47;100927.44;5057933;28;20037;-70
2021/06/12 01:51:29;;;;;;;3.15;2.60;;;;;;;20.57;90.98;100936.13;5067291;28;20068;-70
2021/06/12 01:53:56;;;;;;;3.28;2.78;;;;;;;20.68;90.69;100925.00;5050392;28;20122;-70
2021/06/12 01:56:26;;;;;;;6.22;2.83;;;;;;;20.75;89.40;100924.88;5069500;28;20036;-69
2021/06/12 01:58:52;;;;;;;4.90;2.67;;;;;;;20.68;90.12;100922.25;5069552;28;20044;-70
2021/06/12 02:01:20;;;;;;;5.68;3.33;;;;;;;20.54;90.70;100930.69;5070532;28;20098;-69
2021/06/12 02:03:47;;;;;;;9.48;3.30;;;;;;;20.53;90.69;100931.91;5053907;28;21130;-69
2021/06/12 02:06:16;;;;;;;4.28;2.90;;;;;;;20.45;91.66;100916.78;5074682;28;20055;-70
2021/06/12 02:08:43;;;;;;;3.67;2.95;;;;;;;20.61;90.39;100911.44;5074876;28;20527;-70
2021/06/12 02:11:12;;;;;;;4.43;3.15;;;;;;;20.56;90.91;100900.94;5052160;28;20036;-69
2021/06/12 02:13:38;;;;;;;5.03;3.10;;;;;;;20.37;92.32;100909.84;5078783;28;20036;-71
2021/06/12 02:16:04;;;;;;;7.20;3.20;;;;;;;20.58;90.66;100904.03;5070014;28;20381;-70
2021/06/12 02:18:31;;;;;;;5.15;3.22;;;;;;;20.64;90.28;100905.13;5070238;28;20036;-70
2021/06/12 02:20:58;;;;;;;3.45;3.00;;;;;;;20.37;90.80;100904.38;5062737;28;20447;-70
2021/06/12 02:23:26;;;;;;;4.57;3.25;;;;;;;20.39;91.68;100902.78;5067203;28;20040;-70
2021/06/12 02:25:52;;;;;;;6.47;3.13;;;;;;;20.42;92.32;100901.94;5071883;28;20066;-70
2021/06/12 02:28:20;;;;;;;4.70;3.00;;;;;;;20.46;92.30;100897.19;5070451;28;20452;-69
2021/06/12 02:30:50;;;;;;;5.88;3.50;;;;;;;20.31;92.21;100901.34;5073298;28;20035;-69
2021/06/12 02:33:19;;;;;;;4.28;3.30;;;;;;;20.33;93.19;100896.25;5053448;28;20808;-71
2021/06/12 02:35:45;;;;;;;4.30;3.40;;;;;;;20.43;92.42;100897.25;5054597;28;20037;-71
2021/06/12 02:38:11;;;;;;;5.75;3.63;;;;;;;20.42;92.69;100899.22;5050003;28;20055;-69
2021/06/12 02:40:37;;;;;;;7.60;3.67;;;;;;;20.42;92.11;100899.22;5060243;28;20029;-69
2021/06/12 02:43:03;;;;;;;6.20;3.67;;;;;;;20.45;91.97;100903.09;5063666;28;20032;-72
2021/06/12 02:45:29;;;;;;;4.38;3.35;;;;;;;20.44;92.20;100905.03;5048901;28;20048;-70
2021/06/12 02:48:03;;;;;;;6.65;3.83;;;;;;;20.62;91.08;100904.75;5080622;28;20027;-69
2021/06/12 02:50:32;;;;;;;5.47;3.95;;;;;;;20.64;91.09;100900.41;5062314;28;20041;-69
2021/06/12 02:53:01;;;;;;;7.35;4.20;;;;;;;20.68;91.00;100898.41;5077826;28;20020;-69
2021/06/12 02:55:30;;;;;;;6.20;4.28;;;;;;;20.55;91.45;100899.41;5059931;28;20048;-71
2021/06/12 02:57:57;;;;;;;6.30;4.03;;;;;;;20.45;92.54;100890.19;5076355;28;20304;-70
2021/06/12 03:00:23;;;;;;;8.27;4.28;;;;;;;20.49;92.63;100890.91;5062158;28;20094;-69
2021/06/12 03:02:50;;;;;;;6.45;4.47;;;;;;;20.59;91.98;100889.19;5065975;28;20111;-69
2021/06/12 03:05:19;;;;;;;8.05;4.80;;;;;;;20.53;92.44;100885.38;5055513;28;20060;-69
2021/06/12 03:07:48;;;;;;;9.25;5.35;;;;;;;20.60;92.05;100883.28;5063493;28;20039;-69
2021/06/12 03:10:14;;;;;;;6.18;4.47;;;;;;;20.59;92.08;100879.00;5066321;28;20033;-70
2021/06/12 03:12:41;;;;;;;7.55;4.93;;;;;;;20.66;91.82;100878.09;5054824;28;20382;-69
2021/06/12 03:15:08;;;;;;;8.80;5.13;;;;;;;20.69;91.89;100882.75;5067289;28;20484;-69
2021/06/12 03:17:34;;;;;;;8.40;4.43;;;;;;;20.77;91.79;100881.41;5066976;28;20020;-70
2021/06/12 03:20:02;;;;;;;7.78;5.38;;;;;;;20.57;93.12;100883.34;5072897;28;20039;-70
2021/06/12 03:22:29;;;;;;;10.38;5.65;;;;;;;20.64;93.00;100873.06;5065188;28;20051;-70
2021/06/12 03:24:56;;;;;;;11.65;6.25;;;;;;;20.72;92.58;100872.91;5067730;28;20024;-69
2021/06/12 03:27:22;;;;;;;9.68;5.97;;;;;;;20.76;92.81;100876.38;5062234;28;20398;-70
2021/06/12 03:29:48;;;;;;;8.20;5.47;;;;;;;20.78;92.99;100866.56;5077131;28;20031;-70
2021/06/12 03:32:14;;;;;;;11.25;7.00;;;;;;;20.85;92.75;100873.88;5060691;28;20082;-70
2021/06/12 03:34:40;;;;;;;12.90;7.13;;;;;;;21.00;92.10;100881.38;5063464;28;20041;-70
2021/06/12 03:37:07;;;;;;;13.10;8.63;;;;;;;21.06;91.88;100871.50;5066067;28;20592;-70
2021/06/12 03:39:33;;;;;;;16.40;10.27;;;;;;;20.84;93.25;100878.56;5076214;28;20041;-70
2021/06/12 03:41:59;;;;;;;16.25;10.02;;;;;;;20.95;92.13;100875.63;5069971;28;20012;-70
2021/06/12 03:44:26;;;;;;;18.88;10.90;;;;;;;20.85;93.01;100871.88;5061323;28;20039;-69
2021/06/12 03:46:53;;;;;;;18.92;10.75;;;;;;;20.83;92.89;100865.31;5078769;28;20499;-70
2021/06/12 03:49:19;;;;;;;19.27;11.38;;;;;;;20.69;93.77;100867.09;5078981;28;20595;-69
2021/06/12 03:51:47;;;;;;;16.15;10.93;;;;;;;20.73;93.59;100871.75;5071873;28;20051;-70
2021/06/12 03:54:14;;;;;;;18.02;11.20;;;;;;;20.64;94.71;100866.78;5073503;28;20041;-70
2021/06/12 03:56:40;;;;;;;18.55;11.10;;;;;;;20.77;94.31;100875.94;5056965;28;20033;-70
2021/06/12 03:59:07;;;;;;;19.50;11.57;;;;;;;20.92;93.42;100885.47;5061774;28;20048;-70
2021/06/12 04:01:33;;;;;;;23.17;11.50;;;;;;;20.86;93.92;100876.19;5072214;28;20047;-70
2021/06/12 04:03:59;;;;;;;18.50;10.95;;;;;;;20.91;93.89;100872.94;5071384;28;20036;-70
2021/06/12 04:06:24;;;;;;;17.58;11.18;;;;;;;20.77;95.18;100877.94;5068425;28;20040;-70
2021/06/12 04:08:50;;;;;;;20.38;11.50;;;;;;;20.99;94.31;100870.84;5059466;28;20489;-70
2021/06/12 04:11:16;;;;;;;21.25;12.57;;;;;;;20.98;96.12;100877.53;5057078;28;20051;-70
2021/06/12 04:13:41;;;;;;;29.17;14.88;;;;;;;20.82;99.33;100878.22;5067496;28;20033;-69
2021/06/12 04:16:08;;;;;;;27.90;16.60;;;;;;;20.62;100.00;100878.16;5074279;28;20031;-70
2021/06/12 04:18:33;;;;;;;26.92;16.52;;;;;;;20.45;100.00;100886.66;5072484;28;20020;-70
2021/06/12 04:20:59;;;;;;;28.27;17.17;;;;;;;20.42;100.00;100885.53;5068038;28;20497;-70
2021/06/12 04:23:25;;;;;;;26.77;15.55;;;;;;;20.48;100.00;100874.88;5060057;28;20036;-70
2021/06/12 04:25:50;;;;;;;27.80;16.60;;;;;;;20.66;100.00;100883.56;5070876;28;20638;-70
2021/06/12 04:28:16;;;;;;;31.95;18.52;;;;;;;20.48;100.00;100869.41;5063592;28;20032;-70
2021/06/12 04:30:41;;;;;;;29.42;17.85;;;;;;;20.31;100.00;100865.00;5071912;28;20021;-70
2021/06/12 04:33:07;;;;;;;29.20;17.38;;;;;;;20.30;100.00;100866.22;5068790;28;20044;-70
2021/06/12 04:35:33;;;;;;;28.23;16.52;;;;;;;20.26;100.00;100857.28;5068270;28;20044;-70
2021/06/12 04:37:59;;;;;;;25.08;15.32;;;;;;;20.38;100.00;100856.69;5070460;28;20036;-70
2021/06/12 04:40:29;;;;;;;23.65;15.10;;;;;;;20.16;100.00;100860.91;5067500;28;20059;-70
2021/06/12 04:42:55;;;;;;;25.25;13.80;;;;;;;20.06;100.00;100859.13;5065720;28;20044;-70
2021/06/12 04:45:21;;;;;;;23.30;13.73;;;;;;;20.11;100.00;100867.63;5058640;28;20067;-70
2021/06/12 04:47:46;;;;;;;20.50;13.10;;;;;;;20.34;100.00;100858.72;5075339;28;20716;-70
2021/06/12 04:50:12;;;;;;;21.48;12.35;;;;;;;20.12;100.00;100865.66;5062234;28;20036;-70
2021/06/12 04:52:38;;;;;;;18.75;11.88;;;;;;;20.16;100.00;100869.13;5077131;28;20029;-70
2021/06/12 04:55:09;;;;;;;19.75;11.82;;;;;;;20.15;100.00;100867.59;5071488;28;20140;-70
2021/06/12 04:57:34;;;;;;;20.02;12.40;;;;;;;20.18;100.00;100874.97;5072020;28;20033;-70
2021/06/12 05:00:00;;;;;;;17.48;11.50;;;;;;;20.15;100.00;100864.84;5059601;28;20029;-70
2021/06/12 05:02:25;;;;;;;19.45;11.50;;;;;;;20.26;100.00;100860.00;5073691;28;20043;-70
2021/06/12 05:04:51;;;;;;;19.42;12.05;;;;;;;20.48;100.00;100870.19;5075508;28;20074;-70
2021/06/12 05:07:16;;;;;;;21.75;12.30;;;;;;;20.21;100.00;100868.72;5057580;28;20029;-69
2021/06/12 05:09:42;;;;;;;21.35;11.65;;;;;;;19.94;100.00;100876.13;5059019;28;20485;-70
2021/06/12 05:12:08;;;;;;;15.82;10.77;;;;;;;20.03;100.00;100874.41;5066393;28;20401;-70
2021/06/12 05:14:33;;;;;;;16.00;10.70;;;;;;;20.20;100.00;100876.13;5067886;28;20115;-70
2021/06/12 05:17:02;;;;;;;18.02;10.32;;;;;;;20.26;100.00;100881.91;5060479;28;20119;-70
2021/06/12 05:19:28;;;;;;;21.48;10.95;;;;;;;20.18;100.00;100883.16;5069420;28;20028;-70
2021/06/12 05:21:53;;;;;;;17.40;10.75;;;;;;;20.17;100.00;100890.59;5072932;28;20033;-70
2021/06/12 05:24:19;;;;;;;20.05;10.43;;;;;;;20.40;100.00;100881.69;5052707;28;20409;-70
2021/06/12 05:26:44;;;;;;;17.25;9.65;;;;;;;20.26;100.00;100881.91;5057477;28;20063;-70
2021/06/12 05:29:10;;;;;;;16.10;10.43;;;;;;;20.31;100.00;100882.19;5063548;28;20448;-70
2021/06/12 05:31:35;;;;;;;17.13;9.80;;;;;;;20.32;100.00;100885.72;5059787;28;20036;-70
2021/06/12 05:34:01;;;;;;;18.33;10.98;;;;;;;20.07;100.00;100883.34;5062870;28;20381;-70
2021/06/12 05:36:27;;;;;;;17.50;10.45;;;;;;;20.29;100.00;100875.59;5074893;28;20042;-70
2021/06/12 05:38:52;;;;;;;20.08;10.95;;;;;;;20.32;100.00;100869.31;5075465;28;20052;-69
2021/06/12 05:41:18;;;;;;;20.40;10.63;;;;;;;20.52;100.00;100875.59;5049717;28;20064;-70
2021/06/12 05:43:44;;;;;;;17.67;11.43;;;;;;;20.26;100.00;100887.38;5056329;28;20041;-70
2021/06/12 05:46:10;;;;;;;22.15;12.27;;;;;;;20.33;100.00;100879.81;5068877;28;20089;-70
2021/06/12 05:48:35;;;;;;;24.45;13.52;;;;;;;20.42;100.00;100868.34;5082019;28;20496;-70
2021/06/12 05:51:01;;;;;;;24.67;13.13;;;;;;;20.32;100.00;100863.81;5059251;22;20199;-74
2021/06/12 05:53:26;;;;;;;22.08;12.23;;;;;;;20.26;100.00;100860.78;4976998;28;20041;-74
2021/06/12 05:55:52;;;;;;;26.83;12.75;;;;;;;20.30;100.00;100858.00;4979756;28;20038;-74
2021/06/12 05:58:18;;;;;;;25.05;13.38;;;;;;;20.41;100.00;100862.09;4972232;28;20038;-74
2021/06/12 06:00:44;;;;;;;21.05;13.52;;;;;;;20.52;100.00;100864.66;4967872;28;20066;-75
2021/06/12 06:03:10;;;;;;;26.73;13.77;;;;;;;20.53;100.00;100856.03;4968503;28;20030;-75
2021/06/12 06:05:35;;;;;;;25.95;14.43;;;;;;;20.76;100.00;100866.19;4974979;28;20387;-74
2021/06/12 06:08:01;;;;;;;25.48;14.52;;;;;;;20.66;100.00;100867.94;4971770;28;20043;-74
2021/06/12 06:10:27;;;;;;;25.40;14.18;;;;;;;20.72;100.00;100860.00;4977871;28;20080;-74
2021/06/12 06:12:52;;;;;;;24.27;14.40;;;;;;;20.72;100.00;100870.97;4978055;28;20110;-75
2021/06/12 06:15:18;;;;;;;20.85;14.73;;;;;;;20.75;100.00;100863.88;4979391;28;20080;-74
2021/06/12 06:17:44;;;;;;;24.90;15.35;;;;;;;20.74;100.00;100862.31;4972188;28;20031;-74
2021/06/12 06:20:12;;;;;;;25.63;15.45;;;;;;;20.59;100.00;100867.28;4972795;28;20042;-74
2021/06/12 06:22:39;;;;;;;28.17;15.15;;;;;;;20.85;100.00;100868.41;4978605;28;20022;-74
2021/06/12 06:25:06;;;;;;;25.08;16.15;;;;;;;20.53;100.00;100863.47;4964373;28;20031;-74
2021/06/12 06:27:32;;;;;;;25.73;15.82;;;;;;;20.43;100.00;100867.16;4970348;28;20117;-74
2021/06/12 06:29:58;;;;;;;31.25;17.13;;;;;;;20.68;100.00;100854.59;4987018;28;20109;-73
2021/06/12 06:32:23;;;;;;;35.28;19.08;;;;;;;20.71;100.00;100849.47;4982222;28;20041;-74
2021/06/12 06:34:48;;;;;;;29.52;17.08;;;;;;;20.76;100.00;100838.03;4986599;28;20045;-74
2021/06/12 06:37:14;;;;;;;33.83;19.65;;;;;;;20.76;100.00;100827.88;4969555;28;20495;-74
2021/06/12 06:39:39;;;;;;;32.85;19.42;;;;;;;20.73;100.00;100841.63;4982507;28;20137;-74
2021/06/12 06:42:05;;;;;;;30.27;18.88;;;;;;;20.91;100.00;100844.78;4968507;28;20038;-74
2021/06/12 06:44:33;;;;;;;33.90;19.75;;;;;;;20.88;100.00;100827.25;4970387;28;20130;-74
2021/06/12 06:46:59;;;;;;;35.00;21.33;;;;;;;20.98;100.00;100828.25;4962430;28;20429;-74
2021/06/12 06:49:24;;;;;;;34.97;20.80;;;;;;;21.05;100.00;100831.63;4969588;28;20022;-74
2021/06/12 06:51:50;;;;;;;31.75;19.52;;;;;;;21.45;98.32;100835.09;4972615;28;20042;-74
2021/06/12 06:54:15;;;;;;;37.28;21.02;;;;;;;21.36;98.49;100843.91;4976268;28;20035;-73
2021/06/12 06:56:40;;;;;;;38.00;21.48;;;;;;;21.29;98.88;100830.34;4975204;28;20390;-73
2021/06/12 06:59:06;;;;;;;35.17;20.63;;;;;;;21.26;98.17;100825.72;4976693;28;20812;-72
2021/06/12 07:01:32;;;;;;;36.08;20.73;;;;;;;21.16;97.67;100823.97;4982388;28;20106;-73
2021/06/12 07:03:57;;;;;;;36.80;20.77;;;;;;;21.24;96.78;100825.38;4975380;28;20068;-73
2021/06/12 07:06:22;;;;;;;32.55;19.73;;;;;;;21.29;96.70;100821.38;4981506;28;20519;-73
2021/06/12 07:08:48;;;;;;;31.75;19.27;;;;;;;21.14;97.61;100814.63;4982801;28;20133;-74
2021/06/12 07:11:14;;;;;;;32.15;18.75;;;;;;;21.09;96.94;100806.91;4987510;28;20406;-74
2021/06/12 07:13:40;;;;;;;31.05;17.73;;;;;;;21.00;98.23;100810.16;4991767;28;20034;-73
2021/06/12 07:16:06;;;;;;;32.10;18.25;;;;;;;20.98;98.65;100814.53;4979394;28;20039;-73
2021/06/12 07:18:31;;;;;;;30.98;17.50;;;;;;;20.98;99.11;100812.56;4979761;28;20026;-73
2021/06/12 07:20:57;;;;;;;29.30;17.42;;;;;;;21.06;97.96;100815.97;4986295;28;20505;-73
2021/06/12 07:23:22;;;;;;;28.98;17.23;;;;;;;21.13;97.24;100797.44;4976416;28;20430;-73
2021/06/12 07:25:48;;;;;;;26.10;16.83;;;;;;;21.10;97.06;100803.00;4964485;28;20034;-73
2021/06/12 07:28:15;;;;;;;28.40;17.38;;;;;;;21.20;96.18;100804.72;4982086;28;20030;-73
2021/06/12 07:30:42;;;;;;;31.15;17.23;;;;;;;20.87;98.08;100816.69;4977109;28;20061;-74
2021/06/12 07:33:12;;;;;;;27.90;18.02;;;;;;;20.97;97.74;100810.25;4976124;28;20445;-74
2021/06/12 07:35:39;;;;;;;32.58;18.83;;;;;;;21.07;96.89;100810.06;4979430;28;20038;-73
2021/06/12 07:38:05;;;;;;;31.42;19.48;;;;;;;20.99;97.52;100799.63;4979472;28;20039;-74
2021/06/12 07:40:31;;;;;;;35.75;19.83;;;;;;;21.10;97.12;100798.25;4975924;28;20495;-74
2021/06/12 07:42:57;;;;;;;36.42;20.25;;;;;;;21.35;95.55;100797.75;4982200;28;20030;-74
2021/06/12 07:45:23;;;;;;;35.58;20.17;;;;;;;21.05;97.68;100796.03;4977434;28;20500;-74
2021/06/12 07:47:48;;;;;;;30.85;18.75;;;;;;;21.23;96.27;100809.38;4980965;28;20090;-74
2021/06/12 07:50:14;;;;;;;40.30;19.90;;;;;;;21.05;97.18;100819.91;4980850;28;20078;-74
2021/06/12 07:52:40;;;;;;;41.42;22.17;;;;;;;20.93;100.00;100829.50;4979279;28;20628;-75
2021/06/12 07:55:26;;;;;;;40.03;20.55;;;;;;;20.81;100.00;100830.09;4983533;28;20046;-76
2021/06/12 07:57:52;;;;;;;26.45;12.45;;;;;;;20.50;100.00;100836.91;4987250;28;21359;-75
2021/06/12 08:00:17;;;;;;;17.02;10.35;;;;;;;20.21;100.00;100833.91;4982990;28;20054;-75
2021/06/12 08:02:43;;;;;;;16.50;9.15;;;;;;;20.03;100.00;100821.66;4989488;28;20124;-75
2021/06/12 08:05:09;;;;;;;18.65;8.63;;;;;;;20.10;100.00;100822.31;4984648;28;20121;-75
2021/06/12 08:07:34;;;;;;;14.38;8.77;;;;;;;19.92;100.00;100829.28;4985725;28;20046;-74
2021/06/12 08:10:02;;;;;;;14.27;8.70;;;;;;;19.87;100.00;100833.25;4982528;28;20437;-74
2021/06/12 08:12:29;;;;;;;15.75;9.23;;;;;;;19.96;100.00;100829.97;4987474;28;20038;-74
2021/06/12 08:14:55;;;;;;;19.40;9.73;;;;;;;20.07;100.00;100841.53;4982946;28;20056;-74
2021/06/12 08:17:20;;;;;;;14.93;9.30;;;;;;;20.26;100.00;100843.59;4988861;28;20042;-74
2021/06/12 08:19:46;;;;;;;20.48;9.93;;;;;;;20.25;100.00;100839.31;4987184;28;20597;-74
2021/06/12 08:22:12;;;;;;;22.70;10.85;;;;;;;20.17;100.00;100848.81;4990760;28;20081;-74
2021/06/12 08:24:38;;;;;;;21.55;10.70;;;;;;;20.25;100.00;100842.81;4990456;28;20034;-75
2021/06/12 08:27:04;;;;;;;21.27;10.88;;;;;;;20.08;100.00;100848.53;4988271;28;20053;-74
2021/06/12 08:29:30;;;;;;;23.95;12.20;;;;;;;19.92;100.00;100856.63;4988287;28;20125;-74
2021/06/12 08:31:55;;;;;;;21.98;11.20;;;;;;;19.89;100.00;100846.47;4988255;28;20120;-74
2021/06/12 08:34:22;;;;;;;24.73;12.05;;;;;;;19.94;100.00;100851.50;4986469;28;20160;-75
2021/06/12 08:36:48;;;;;;;23.05;13.93;;;;;;;20.02;100.00;100853.72;4961142;28;20030;-75
2021/06/12 08:39:14;;;;;;;24.45;13.48;;;;;;;20.01;100.00;100849.44;4984631;28;20134;-75
2021/06/12 08:41:40;;;;;;;23.15;14.18;;;;;;;20.13;100.00;100845.34;4984731;28;20458;-75
2021/06/12 08:44:09;;;;;;;23.65;13.23;;;;;;;20.31;100.00;100854.06;4985518;28;20038;-75
2021/06/12 08:46:34;;;;;;;23.35;13.45;;;;;;;20.58;100.00;100854.78;4979447;28;20044;-75
2021/06/12 08:49:01;;;;;;;21.77;13.25;;;;;;;20.70;100.00;100862.38;4979838;28;20039;-74
2021/06/12 08:51:27;;;;;;;20.73;12.00;;;;;;;20.89;100.00;100853.44;4984341;28;20035;-75
2021/06/12 08:53:53;;;;;;;22.75;12.73;;;;;;;21.06;100.00;100848.84;4983791;28;20042;-75
2021/06/12 08:56:18;;;;;;;21.85;10.85;;;;;;;20.94;100.00;100857.66;4972470;28;20074;-75
2021/06/12 08:58:44;;;;;;;14.23;9.57;;;;;;;21.22;100.00;100863.38;4977275;28;20054;-75
2021/06/12 09:01:09;;;;;;;15.63;9.18;;;;;;;21.03;99.61;100855.94;4973973;28;20038;-75
2021/06/12 09:03:43;;;;;;;16.70;9.20;;;;;;;21.10;98.98;100858.53;4979251;28;20718;-75
2021/06/12 09:06:09;;;;;;;18.92;8.32;;;;;;;21.21;96.62;100864.59;4967921;28;20057;-75
2021/06/12 09:08:41;;;;;;;15.57;8.55;;;;;;;21.36;96.51;100863.09;4980895;28;20038;-75
2021/06/12 09:11:09;;;;;;;18.63;7.80;;;;;;;21.35;94.66;100853.31;4962876;28;20030;-75
2021/06/12 09:13:40;;;;;;;21.10;8.35;;;;;;;21.55;96.07;100856.03;4985052;28;20042;-75
2021/06/12 09:16:07;;;;;;;;;;;;;;;21.66;96.23;100855.84;4972170;28;20037;-75
2021/06/12 09:18:40;;;;;;;13.88;7.50;;;;;;;21.71;95.33;100860.78;4977769;28;19922;-75
2021/06/12 09:21:07;;;;;;;13.20;7.13;;;;;;;21.74;94.92;100863.47;4973619;28;20467;-75
2021/06/12 09:23:41;;;;;;;10.70;6.60;;;;;;;21.73;93.42;100866.63;4987993;28;20042;-75
2021/06/12 09:26:07;;;;;;;8.38;6.10;;;;;;;21.74;93.90;100871.69;4976047;28;20038;-75
2021/06/12 09:28:53;;;;;;;10.18;5.90;;;;;;;21.81;90.99;100882.53;4948426;28;20517;-75
2021/06/12 09:31:26;;;;;;;12.85;5.07;;;;;;;21.87;88.54;100888.28;4974189;28;20051;-74
2021/06/12 09:33:55;;;;;;;10.45;5.13;;;;;;;22.05;89.13;100869.44;4975310;28;20030;-75
2021/06/12 09:36:31;;;;;;;9.85;4.32;;;;;;;22.16;85.72;100878.22;4974300;28;20446;-75
2021/06/12 09:39:05;;;;;;;16.35;5.13;;;;;;;22.28;84.89;100864.56;4971792;28;20034;-75
2021/06/12 09:41:31;;;;;;;10.57;4.30;;;;;;;22.60;85.57;100874.03;4978677;28;20037;-75
2021/06/12 09:43:56;;;;;;;10.27;4.25;;;;;;;22.71;82.52;100877.25;4972107;28;20406;-75
2021/06/12 09:46:35;;;;;;;8.23;4.20;;;;;;;22.88;81.59;100863.06;4986485;28;20070;-75
2021/06/12 09:49:03;;;;;;;10.25;4.38;;;;;;;23.21;83.44;100859.00;4974527;28;20069;-75
2021/06/12 09:51:28;;;;;;;9.63;4.30;;;;;;;23.22;80.61;100852.31;4978302;28;20390;-75
2021/06/12 09:53:57;;;;;;;8.73;4.60;;;;;;;23.29;79.74;100856.81;4955949;28;20035;-75
2021/06/12 09:56:24;;;;;;;7.97;3.92;;;;;;;23.43;78.79;100852.94;4984216;28;20118;-75
2021/06/12 09:58:55;;;;;;;11.45;4.15;;;;;;;23.20;78.33;100867.69;4978030;28;20041;-75
2021/06/12 10:01:24;;;;;;;5.95;3.55;;;;;;;23.44;76.91;100860.72;4965981;28;20096;-76
2021/06/12 10:04:07;;;;;;;9.95;4.07;;;;;;;23.32;76.22;100852.47;4981896;28;20050;-75
2021/06/12 10:06:33;;;;;;;9.90;3.75;;;;;;;23.23;74.26;100864.84;4979477;28;20031;-75
2021/06/12 10:09:02;;;;;;;8.02;3.63;;;;;;;22.78;76.39;100869.63;4970392;28;20042;-75
2021/06/12 10:11:30;;;;;;;6.88;3.20;;;;;;;22.66;76.00;100881.31;4985438;28;20117;-75
2021/06/12 10:13:57;;;;;;;11.45;3.10;;;;;;;22.64;73.24;100882.94;4984290;28;20699;-75
2021/06/12 10:16:24;;;;;;;5.47;2.50;;;;;;;22.63;74.36;100895.91;4977841;28;20053;-75
2021/06/12 10:18:52;;;;;;;8.30;2.67;;;;;;;22.48;73.02;100889.19;4977994;28;20046;-75
2021/06/12 10:21:18;;;;;;;5.75;2.88;;;;;;;22.39;71.38;100900.00;4977632;28;20039;-75
2021/06/12 10:23:45;;;;;;;6.72;2.80;;;;;;;22.28;71.11;100891.25;4982634;28;20033;-75
2021/06/12 10:26:14;;;;;;;8.63;2.72;;;;;;;22.29;72.47;100904.56;4978335;28;20116;-75
2021/06/12 10:28:40;;;;;;;9.07;2.70;;;;;;;22.04;71.30;100896.13;4983113;28;20094;-75
2021/06/12 10:31:09;;;;;;;8.68;2.60;;;;;;;21.86;73.99;100911.44;4983661;28;20236;-75
2021/06/12 10:33:35;;;;;;;4.78;2.33;;;;;;;21.91;73.69;100897.22;4975045;28;20035;-75
2021/06/12 10:36:37;;;;;;;6.47;2.55;;;;;;;22.34;72.61;100908.75;4973823;28;20440;-75
2021/06/12 10:39:24;;;;;;;8.93;2.22;;;;;;;22.22;68.39;100920.44;4980850;28;20042;-75
2021/06/12 10:42:08;;;;;;;8.73;2.40;;;;;;;22.17;70.40;100923.66;4958869;28;20411;-75
2021/06/12 10:44:33;;;;;;;8.05;2.10;;;;;;;22.19;73.00;100932.25;4978109;28;20031;-74
2021/06/12 10:46:59;;;;;;;6.55;2.42;;;;;;;22.53;71.15;100935.34;4973330;28;20491;-74
2021/06/12 10:49:29;;;;;;;8.63;2.00;;;;;;;22.64;71.43;100935.91;4968893;28;20075;-74
2021/06/12 10:51:54;;;;;;;5.28;1.98;;;;;;;22.79;69.57;100937.09;4979331;28;20037;-75
2021/06/12 10:54:23;;;;;;;4.22;1.63;;;;;;;22.65;69.94;100936.69;4975878;28;20038;-75
2021/06/12 10:56:53;;;;;;;10.88;1.80;;;;;;;22.61;67.36;100928.50;4975989;28;20027;-75
2021/06/12 10:59:38;;;;;;;9.40;1.70;;;;;;;22.10;68.14;100934.81;4974886;28;20030;-74
2021/06/12 11:05:09;;;;;;;5.57;1.92;;;;;;;22.44;67.62;100932.44;4977058;28;20019;-75
2021/06/12 11:07:36;;;;;;;3.13;1.35;;;;;;;22.43;64.90;100931.66;4980115;28;20031;-75
2021/06/12 11:10:11;;;;;;;9.30;1.33;;;;;;;22.34;64.70;100927.97;4967110;28;20062;-75
2021/06/12 11:12:50;;;;;;;4.55;1.30;;;;;;;22.11;62.74;100931.63;4975024;28;20042;-75
2021/06/12 11:15:21;;;;;;;4.10;1.30;;;;;;;22.72;61.51;100920.81;4979022;28;20027;-74
2021/06/12 11:18:22;;;;;;;6.43;1.40;;;;;;;23.32;60.90;100930.22;4982616;28;20113;-74
2021/06/12 11:21:02;;;;;;;4.80;1.55;;;;;;;23.42;58.14;100939.38;4975153;28;20042;-75